Flight Track Log - Related Links

Times and Time Zones

All times are in EDT time to prevent confusion due to time zone crossing. See the CNK432 flight status page for this flight to view local times or setup timezone preferences in your user account.

Time Position Orientation Groundspeed Altitude Reporting Facility
EDT Latitude Longitude Course Direction KTS MPH feet Rate Location/Type
Wed 04:58:18 PM 53.2833 -113.5000 130° Southeast 180 207 5,500  Level Edmonton Center
Wed 04:59:18 PM 53.2333 -113.4833 169° South 190 219 7,800 2,150 Climbing Edmonton Center
Wed 05:00:18 PM 53.1833 -113.5000 191° South 200 230 9,800 1,950 Climbing Edmonton Center
Wed 05:01:18 PM 53.1167 -113.4833 171° South 210 242 11,700 1,900 Climbing Edmonton Center
Wed 05:02:18 PM 53.0667 -113.5000 191° South 220 253 13,600 1,600 Climbing Edmonton Center
Wed 05:03:18 PM 53.0000 -113.5167 189° South 250 288 14,900 1,450 Climbing Edmonton Center
Wed 05:04:18 PM 52.9333 -113.5000 171° South 260 299 16,500 1,000 Climbing Edmonton Center
Wed 05:05:18 PM 52.8667 -113.5167 189° South 270 311 16,900 250 Climbing Edmonton Center
Wed 05:06:18 PM 52.7667 -113.5333 186° South 280 322 17,000 50 Climbing Edmonton Center
Wed 05:07:18 PM 52.6833 -113.5333 180° South 300 345 17,000 -50 Level Edmonton Center
Wed 05:08:18 PM 52.6000 -113.5500 187° South 300 345 16,900 -50 Descending Edmonton Center
Wed 05:09:18 PM 52.5167 -113.5667 187° South 310 357 16,900 50 Level Edmonton Center
Wed 05:10:18 PM 52.4333 -113.5667 180° South 300 345 17,000 50 Climbing Edmonton Center
Wed 05:11:18 PM 52.3500 -113.5833 187° South 300 345 17,000 -50 Level Edmonton Center
Wed 05:12:18 PM 52.2667 -113.5667 173° South 310 357 16,900  Descending Edmonton Center
Wed 05:13:18 PM 52.1833 -113.5833 187° South 300 345 17,000  Climbing Edmonton Center
Wed 05:14:18 PM 52.0833 -113.5833 180° South 300 345 16,900 -50 Descending Edmonton Center
Wed 05:15:18 PM 52.0000 -113.6000 187° South 300 345 16,900 -250 Level Edmonton Center
Wed 05:16:18 PM 51.9167 -113.6000 180° South 300 345 16,400 -950 Descending Edmonton Center
Wed 05:17:18 PM 51.8500 -113.6167 189° South 300 345 15,000 -1,500 Descending Edmonton Center
Wed 05:18:18 PM 51.7667 -113.6333 187° South 300 345 13,400 -1,500 Descending Edmonton Center
Wed 05:19:18 PM 51.7000 -113.6667 197° South 270 311 12,000 -1,200 Descending Edmonton Center
Wed 05:20:18 PM 51.6167 -113.6833 187° South 240 276 11,000 -600 Descending Edmonton Center
Wed 05:21:18 PM 51.5500 -113.7167 197° South 230 265 10,800 -450 Descending Edmonton Center
Wed 05:22:18 PM 51.5000 -113.7333 192° South 220 253 10,100 -400 Descending Edmonton Center
Wed 05:23:18 PM 51.4500 -113.7500 192° South 210 242 10,000 -50 Descending Edmonton Center
Wed 05:24:18 PM 51.3833 -113.7667 189° South 210 242 10,000  Level Edmonton Center
Wed 05:25:18 PM 51.3167 -113.8167 205° Southwest 210 242 10,000  Level Edmonton Center
Wed 05:26:18 PM 51.2667 -113.8333 192° South 220 253 10,000 -300 Level Edmonton Center
Wed 05:27:18 PM 51.2000 -113.8500 189° South 210 242 9,400 -700 Descending Edmonton Center
Wed 05:28:18 PM 51.1500 -113.8500 180° South 220 253 8,600 -700 Descending Edmonton Center
Wed 05:29:18 PM 51.1000 -113.8000 148° Southeast 220 253 8,000 -300 Descending Edmonton Center
Wed 05:30:18 PM 51.0833 -113.7000 105° East 220 253 8,000 -100 Level Edmonton Center
Wed 05:31:18 PM 51.0500 -113.6167 122° Southeast 210 242 7,800 -550 Descending Edmonton Center
Wed 05:32:18 PM 51.0000 -113.5833 157° South 190 219 6,900 -900 Descending Edmonton Center
Wed 05:33:18 PM 50.9500 -113.6333 212° Southwest 190 219 6,000 -450 Descending Edmonton Center
Wed 05:34:18 PM 50.9667 -113.6833 298° West 190 219 6,000 -50 Level Edmonton Center
Wed 05:35:18 PM 50.9833 -113.7667 288° West 190 219 5,900 -50 Descending Edmonton Center
Wed 05:36:18 PM 51.0167 -113.8333 308° West 190 219 5,900 -400 Level Edmonton Center
Wed 05:37:18 PM 51.0500 -113.9167 302° West 190 219 5,100 -800 Descending Edmonton Center
Wed 05:38:18 PM 51.0667 -113.9833 292° West 160 184 4,300 -750 Descending Edmonton Center
Wed 05:39:18 PM 51.0833 -114.0333 298° West 120 138 3,600 -400 Descending Edmonton Center
Wed 05:40:18 PM 51.1000 -114.0667 309° West 100 115 3,500 -100 Descending Edmonton Center

Login

Don't have an account? Register now (free) for customized features, flight alerts, and more!